Center — 9HA2615 — position and weather

sailwx.info

Track history (hours):
 
Tides and Currents Weather Stations Pressure Air Temp Water Temp Dewpoint Dewpoint Depression Visibility Wind Speed Wind Dir Waves Ship Positions

Center

Last reported at 2014-Jun-09 00:09 UTC. Time now 2014-Jul-24 14:37 UTC.
Position N 26°33' E 056°30'.
Warning: this ship's position is 45 days out of date.

Length 274 m; draft 11.9 m.

Type: Tanker. MMSI: 215030000.

Date/timePositionNaut miles runAvg speedWind from/ knotsBaromVisibWave heightAir tempDewpointWater temp
2014-Jun-09 00:09N 26°33' E 056°30'2213.5
2014-Jun-08 22:32N 26°24' E 056°08'1413.8
2014-Jun-08 21:33N 26°18' E 055°54'1313.1
2014-Jun-08 20:33N 26°13' E 055°40'1212.1
2014-Jun-08 19:33N 26°09' E 055°28'1211.9
2014-Jun-08 18:34N 26°07' E 055°15'1212.1
2014-Jun-08 17:33N 26°05' E 055°02'1212.2
2014-Jun-08 16:33N 26°02' E 054°48'1312.8
2014-Jun-08 15:33N 25°60' E 054°34'1313.1
2014-Jun-08 14:33N 25°58' E 054°20'1313.4
2014-Jun-08 13:33N 25°54' E 054°06'1313.0
2014-Jun-08 12:32N 25°48' E 053°52'1813.1
2014-Jun-08 11:09N 25°38' E 053°36'812.8
2014-Jun-08 10:33N 25°33' E 053°29'1312.7
2014-Jun-08 09:34N 25°27' E 053°17'1312.6
2014-Jun-08 08:33N 25°19' E 053°06'1211.7
2014-Jun-08 07:33N 25°11' E 052°56'2 0.8
2014-Jun-08 05:34N 25°10' E 052°55'2 1.5
2014-Jun-08 04:33N 25°09' E 052°56'1 0.0
2014-Jun-07 05:21N 25°08' E 052°56'1 1.6
2014-Jun-07 04:33N 25°10' E 052°56'2 2.1
2014-Jun-07 03:34N 25°11' E 052°57'6 5.5
2014-Jun-07 02:33N 25°16' E 052°60'10 9.8
2014-Jun-07 01:33N 25°22' E 053°08'9 9.2
2014-Jun-07 00:32N 25°28' E 053°17'1212.1
2014-Jun-06 23:33N 25°35' E 053°27'1211.9
2014-Jun-06 22:33N 25°43' E 053°37'1212.0
2014-Jun-06 21:33N 25°51' E 053°47'1212.2
2014-Jun-06 20:33N 25°59' E 053°57'1412.6
2014-Jun-06 19:27N 26°07' E 054°09'1112.6
2014-Jun-06 18:33N 26°14' E 054°19'1312.8
2014-Jun-06 17:33N 26°22' E 054°31'1513.8
2014-Jun-06 16:26N 26°20' E 054°48'1613.9
2014-Jun-06 15:18N 26°18' E 055°06'1114.0
2014-Jun-06 14:33N 26°20' E 055°17'1414.2
2014-Jun-06 13:33N 26°23' E 055°33'358 7.1
2014-Jun-04 11:18N 24°35' E 061°50'7811.2
2014-Jun-04 04:20N 24°40' E 063°16'24112.2
2014-Jun-03 08:33N 22°42' E 067°05'9 9.4
2014-Jun-03 07:33N 22°33' E 067°04'7 7.2
2014-Jun-03 06:33N 22°25' E 067°04'2411.9
2014-Jun-03 04:33N 22°06' E 067°19'  
Track history (hours):
 
Tides and Currents Weather Stations Pressure Air Temp Water Temp Dewpoint Dewpoint Depression Visibility Wind Speed Wind Dir Waves Ship Positions

Center

Last reported at 2014-Jun-09 00:09 UTC. Time now 2014-Jul-24 14:37 UTC.
Position N 26°33' E 056°30'.
Warning: this ship's position is 45 days out of date.

Length 274 m; draft 11.9 m.

Type: Tanker. MMSI: 215030000.

Date/timePositionNaut miles runAvg speedWind from/ knotsBaromVisibWave heightAir tempDewpointWater temp
2014-Jun-09 00:09N 26°33' E 056°30'2213.5
2014-Jun-08 22:32N 26°24' E 056°08'1413.8
2014-Jun-08 21:33N 26°18' E 055°54'1313.1
2014-Jun-08 20:33N 26°13' E 055°40'1212.1
2014-Jun-08 19:33N 26°09' E 055°28'1211.9
2014-Jun-08 18:34N 26°07' E 055°15'1212.1
2014-Jun-08 17:33N 26°05' E 055°02'1212.2
2014-Jun-08 16:33N 26°02' E 054°48'1312.8
2014-Jun-08 15:33N 25°60' E 054°34'1313.1
2014-Jun-08 14:33N 25°58' E 054°20'1313.4
2014-Jun-08 13:33N 25°54' E 054°06'1313.0
2014-Jun-08 12:32N 25°48' E 053°52'1813.1
2014-Jun-08 11:09N 25°38' E 053°36'812.8
2014-Jun-08 10:33N 25°33' E 053°29'1312.7
2014-Jun-08 09:34N 25°27' E 053°17'1312.6
2014-Jun-08 08:33N 25°19' E 053°06'1211.7
2014-Jun-08 07:33N 25°11' E 052°56'2 0.8
2014-Jun-08 05:34N 25°10' E 052°55'2 1.5
2014-Jun-08 04:33N 25°09' E 052°56'1 0.0
2014-Jun-07 05:21N 25°08' E 052°56'1 1.6
2014-Jun-07 04:33N 25°10' E 052°56'2 2.1
2014-Jun-07 03:34N 25°11' E 052°57'6 5.5
2014-Jun-07 02:33N 25°16' E 052°60'10 9.8
2014-Jun-07 01:33N 25°22' E 053°08'9 9.2
2014-Jun-07 00:32N 25°28' E 053°17'1212.1
2014-Jun-06 23:33N 25°35' E 053°27'1211.9
2014-Jun-06 22:33N 25°43' E 053°37'1212.0
2014-Jun-06 21:33N 25°51' E 053°47'1212.2
2014-Jun-06 20:33N 25°59' E 053°57'1412.6
2014-Jun-06 19:27N 26°07' E 054°09'1112.6
2014-Jun-06 18:33N 26°14' E 054°19'1312.8
2014-Jun-06 17:33N 26°22' E 054°31'1513.8
2014-Jun-06 16:26N 26°20' E 054°48'1613.9
2014-Jun-06 15:18N 26°18' E 055°06'1114.0
2014-Jun-06 14:33N 26°20' E 055°17'1414.2
2014-Jun-06 13:33N 26°23' E 055°33'358 7.1
2014-Jun-04 11:18N 24°35' E 061°50'7811.2
2014-Jun-04 04:20N 24°40' E 063°16'24112.2
2014-Jun-03 08:33N 22°42' E 067°05'9 9.4
2014-Jun-03 07:33N 22°33' E 067°04'7 7.2
2014-Jun-03 06:33N 22°25' E 067°04'2411.9
2014-Jun-03 04:33N 22°06' E 067°19'  

Dump ship's entire track history